Richmond South's Hourly Summary for Monday, July 9, 2018
Hour Temp
(f)
RH
(%)
Solar Rad.
(MJ/m2)
Rainfall
(in)
Wind
(mph)
7/9/2018 12:00 AM 75 93 0 0 0.69
7/9/2018 1:00 AM 74 95 0 0 0
7/9/2018 2:00 AM 74 96 0 0 0
7/9/2018 3:00 AM 73 96 0 0 0
7/9/2018 4:00 AM 73 96 0 0 0
7/9/2018 5:00 AM 73 97 0 0 0
7/9/2018 6:00 AM 74 97 0 0 0
7/9/2018 7:00 AM 74 97 0.01 0 0.25
7/9/2018 8:00 AM 75 97 0.15 0 0.73
7/9/2018 9:00 AM 78 93 0.62 0 0.86
7/9/2018 10:00 AM 81 82 0.96 0 1.71
7/9/2018 11:00 AM 83 75 1.04 0 1.5
7/9/2018 12:00 PM 85 67 1.87 0 1.74
7/9/2018 1:00 PM 77 69 0.72 0.15 6.6
7/9/2018 2:00 PM 75 88 0.4 0.01 1.28
7/9/2018 3:00 PM 76 89 0.47 0 0.9
7/9/2018 4:00 PM 80 70 2.38 0 2.25
7/9/2018 5:00 PM 86 60 2.54 0 2.28
7/9/2018 6:00 PM 87 64 1.43 0 1.73
7/9/2018 7:00 PM 86 65 0.91 0 1.89
7/9/2018 8:00 PM 83 73 0.22 0 1.12
7/9/2018 9:00 PM 80 83 0.01 0 0.45
7/9/2018 10:00 PM 79 85 0 0 0.04
7/9/2018 11:00 PM 78 87 0 0 0
Data Summary 78 83 13.73 0.16 1.08